Time;durP1;ratioP1;P1;durP2;ratioP2;P2;SDS_P1;SDS_P2;PMS_P1;PMS_P2;Temp;Humidity;BMP_temperature;BMP_pressure;BME280_temperature;BME280_humidity;BME280_pressure;Samples;Min_cycle;Max_cycle;Signal;HPM_P1;HPM_P2
2023/04/29 00:00:16;;;;;;;39.65;26.98;;;;;;;10.60;100.00;101328.41;5032272;28;20512;-63
2023/04/29 00:02:44;;;;;;;40.65;27.58;;;;;;;10.50;100.00;101336.47;5043938;28;20052;-65
2023/04/29 00:05:12;;;;;;;36.47;27.23;;;;;;;10.42;100.00;101326.84;5036183;28;20053;-64
2023/04/29 00:07:40;;;;;;;33.38;25.25;;;;;;;10.43;100.00;101324.94;5045898;28;20095;-64
2023/04/29 00:10:09;;;;;;;36.42;27.60;;;;;;;10.48;100.00;101330.44;5031232;28;20045;-67
2023/04/29 00:12:36;;;;;;;33.03;24.35;;;;;;;10.48;100.00;101338.63;5039499;28;20385;-66
2023/04/29 00:15:05;;;;;;;31.00;22.98;;;;;;;10.48;100.00;101335.09;5052739;28;20052;-62
2023/04/29 00:17:33;;;;;;;31.00;23.65;;;;;;;10.47;100.00;101331.53;5036421;28;20061;-63
2023/04/29 00:20:01;;;;;;;27.30;22.45;;;;;;;10.43;100.00;101338.56;5045410;28;20508;-63
2023/04/29 00:22:29;;;;;;;27.25;22.02;;;;;;;10.42;100.00;101345.09;5032951;28;20057;-63
2023/04/29 00:24:56;;;;;;;27.13;22.17;;;;;;;10.40;100.00;101342.63;5031819;28;20042;-63
2023/04/29 00:27:24;;;;;;;30.42;22.48;;;;;;;10.41;100.00;101349.75;5032144;28;20108;-63
2023/04/29 00:29:52;;;;;;;26.50;21.55;;;;;;;10.42;100.00;101345.09;5032812;28;20157;-64
2023/04/29 00:32:21;;;;;;;30.33;22.83;;;;;;;10.40;100.00;101345.34;5032687;28;20128;-65
2023/04/29 00:34:50;;;;;;;26.48;22.08;;;;;;;10.39;100.00;101346.44;5033642;28;20155;-65
2023/04/29 00:37:18;;;;;;;29.13;22.95;;;;;;;10.38;100.00;101354.84;5036083;28;20045;-64
2023/04/29 00:39:45;;;;;;;31.55;23.60;;;;;;;10.35;100.00;101350.75;5035928;28;20405;-62
2023/04/29 00:42:13;;;;;;;28.48;23.90;;;;;;;10.35;100.00;101355.38;5034775;28;20075;-62
2023/04/29 00:44:41;;;;;;;29.33;23.83;;;;;;;10.37;100.00;101364.13;5027179;28;20452;-64
2023/04/29 00:47:10;;;;;;;31.15;25.30;;;;;;;10.35;100.00;101360.81;5044134;28;20042;-63
2023/04/29 00:49:39;;;;;;;31.00;24.95;;;;;;;10.34;100.00;101359.16;5015986;28;20046;-63
2023/04/29 00:52:07;;;;;;;30.90;24.98;;;;;;;10.33;100.00;101363.78;5031984;28;20053;-67
2023/04/29 00:54:34;;;;;;;34.72;25.10;;;;;;;10.32;100.00;101361.31;5035489;28;20049;-64
2023/04/29 00:57:05;;;;;;;30.40;24.23;;;;;;;10.32;100.00;101361.31;5018516;28;20103;-64
2023/04/29 00:59:33;;;;;;;30.15;24.73;;;;;;;10.32;100.00;101361.31;5037733;28;20503;-63
2023/04/29 01:02:02;;;;;;;28.50;22.65;;;;;;;10.32;100.00;101366.75;5046695;28;20055;-65
2023/04/29 01:04:31;;;;;;;29.55;24.52;;;;;;;10.33;100.00;101371.13;5055631;28;20098;-65
2023/04/29 01:07:19;;;;;;;31.90;24.52;;;;;;;10.35;100.00;101369.81;5026619;28;20041;-63
2023/04/29 01:10:16;;;;;;;30.80;23.73;;;;;;;10.37;100.00;101375.84;5046827;28;20053;-65
2023/04/29 01:13:00;;;;;;;32.50;25.00;;;;;;;10.35;100.00;101382.59;5028368;28;20049;-65
2023/04/29 01:15:57;;;;;;;30.77;24.30;;;;;;;10.32;100.00;101383.94;5034330;28;20046;-63
2023/04/29 01:18:29;;;;;;;28.83;23.90;;;;;;;10.32;100.00;101383.94;5038829;28;20060;-66
2023/04/29 01:20:57;;;;;;;30.35;24.58;;;;;;;10.34;100.00;101387.25;5054289;28;20060;-65
2023/04/29 01:23:29;;;;;;;35.90;25.33;;;;;;;10.34;100.00;101392.69;5054367;28;20056;-65
2023/04/29 01:25:58;;;;;;;30.65;24.83;;;;;;;10.31;100.00;101393.16;5033714;28;20041;-64
2023/04/29 01:28:57;;;;;;;32.15;23.80;;;;;;;10.28;100.00;101393.69;5034949;28;20505;-64
2023/04/29 01:31:40;;;;;;;31.73;25.38;;;;;;;10.27;100.00;101391.16;5035884;28;20053;-62
2023/04/29 01:34:13;;;;;;;32.15;24.02;;;;;;;10.27;100.00;101391.16;5018896;28;20111;-63
2023/04/29 01:37:00;;;;;;;29.33;24.00;;;;;;;10.27;100.00;101391.16;5043766;28;20552;-65
2023/04/29 01:39:57;;;;;;;31.02;24.58;;;;;;;10.24;100.00;101397.94;5033684;28;20397;-65
2023/04/29 01:42:38;;;;;;;33.38;24.27;;;;;;;10.24;100.00;101403.38;5030347;28;20501;-63
2023/04/29 01:45:15;;;;;;;31.90;23.42;;;;;;;10.23;100.00;101408.03;5001216;28;20045;-62
2023/04/29 01:47:43;;;;;;;33.38;24.20;;;;;;;10.21;100.00;101404.72;5033143;28;20374;-64
2023/04/29 01:50:11;;;;;;;31.83;22.70;;;;;;;10.18;100.00;101404.41;5033618;28;20498;-65
2023/04/29 01:52:40;;;;;;;31.08;23.33;;;;;;;10.16;100.00;101407.38;5049776;28;20133;-62
2023/04/29 01:55:08;;;;;;;30.92;23.17;;;;;;;10.16;100.00;101403.84;5050882;28;20405;-63
2023/04/29 01:57:43;;;;;;;32.17;23.05;;;;;;;10.17;100.00;101402.75;5033495;28;20053;-63
2023/04/29 02:00:29;;;;;;;31.95;23.35;;;;;;;10.15;100.00;101410.34;5032628;28;20046;-65
2023/04/29 02:02:56;;;;;;;30.77;23.20;;;;;;;10.14;100.00;101403.25;5033792;28;20107;-63
2023/04/29 02:05:45;;;;;;;31.30;22.90;;;;;;;10.11;100.00;101410.03;5036435;28;20037;-62
2023/04/29 02:08:13;;;;;;;31.58;23.50;;;;;;;10.11;100.00;101409.22;5028843;28;20457;-63
2023/04/29 02:10:58;;;;;;;34.22;22.63;;;;;;;10.08;100.00;101407.81;5030498;28;20046;-62
2023/04/29 02:13:33;;;;;;;31.52;23.13;;;;;;;10.05;100.00;101416.47;5013073;28;20052;-65
2023/04/29 02:16:12;;;;;;;33.22;23.65;;;;;;;10.03;100.00;101424.91;5017835;28;20045;-63
2023/04/29 02:19:09;;;;;;;33.25;23.58;;;;;;;10.02;100.00;101417.78;5030098;28;20461;-65
2023/04/29 02:21:39;;;;;;;36.38;24.85;;;;;;;10.05;100.00;101421.09;5033281;28;20125;-64
2023/04/29 02:24:06;;;;;;;32.65;23.52;;;;;;;10.04;100.00;101425.72;5034403;28;20536;-65
2023/04/29 02:26:34;;;;;;;34.10;24.00;;;;;;;10.05;100.00;101426.53;5019237;28;20552;-64
2023/04/29 02:29:02;;;;;;;41.38;25.85;;;;;;;10.04;100.00;101436.59;5033056;28;20051;-63
2023/04/29 02:31:30;;;;;;;35.72;24.00;;;;;;;10.02;100.00;101430.59;5033382;28;20045;-63
2023/04/29 02:33:59;;;;;;;37.00;25.55;;;;;;;10.02;100.00;101433.31;5019208;28;20053;-63
2023/04/29 02:36:27;;;;;;;33.85;26.48;;;;;;;10.04;100.00;101442.06;5013816;28;20125;-63
2023/04/29 02:38:55;;;;;;;34.03;25.98;;;;;;;10.04;100.00;101439.31;5013278;28;20050;-63
2023/04/29 02:41:24;;;;;;;32.67;24.55;;;;;;;10.00;100.00;101441.72;5013968;28;20119;-63
2023/04/29 02:43:52;;;;;;;37.22;26.27;;;;;;;10.02;100.00;101449.63;5018700;28;20120;-63
2023/04/29 02:46:19;;;;;;;36.50;25.40;;;;;;;10.00;100.00;101457.22;5019644;28;20486;-64
2023/04/29 02:48:47;;;;;;;36.20;25.30;;;;;;;10.01;100.00;101453.44;5033356;28;20046;-65
2023/04/29 02:51:15;;;;;;;36.55;25.75;;;;;;;10.03;100.00;101462.19;5018594;28;20046;-63
2023/04/29 02:53:43;;;;;;;36.80;25.77;;;;;;;10.00;100.00;101459.94;5017213;28;20538;-63
2023/04/29 02:56:11;;;;;;;35.78;24.63;;;;;;;9.99;100.00;101458.31;5012709;28;20544;-64
2023/04/29 02:58:39;;;;;;;32.83;23.13;;;;;;;10.00;100.00;101468.94;5019899;28;20117;-65
2023/04/29 03:01:06;;;;;;;35.97;23.30;;;;;;;9.98;100.00;101467.53;5036636;28;20048;-63
2023/04/29 03:03:34;;;;;;;33.92;23.17;;;;;;;9.93;100.00;101468.31;5024407;28;20563;-62
2023/04/29 03:06:03;;;;;;;35.50;24.48;;;;;;;9.93;100.00;101470.19;5019354;28;20114;-63
2023/04/29 03:08:31;;;;;;;31.42;22.23;;;;;;;9.94;100.00;101469.13;5018584;28;20120;-62
2023/04/29 03:10:59;;;;;;;31.48;20.98;;;;;;;9.92;100.00;101477.53;5013890;28;20053;-63
2023/04/29 03:13:26;;;;;;;30.10;21.35;;;;;;;9.93;100.00;101478.34;5013783;28;20050;-64
2023/04/29 03:15:57;;;;;;;30.50;21.40;;;;;;;9.92;100.00;101474.81;5013686;28;20045;-63
2023/04/29 03:18:25;;;;;;;31.67;21.63;;;;;;;9.89;100.00;101474.50;5028353;28;20050;-62
2023/04/29 03:20:52;;;;;;;29.95;20.40;;;;;;;9.89;100.00;101479.94;5012997;28;20125;-62
2023/04/29 03:23:21;;;;;;;27.88;20.00;;;;;;;9.89;100.00;101488.91;5045727;28;20070;-63
2023/04/29 03:25:49;;;;;;;29.63;20.25;;;;;;;9.90;100.00;101487.00;5011355;28;20128;-64
2023/04/29 03:28:17;;;;;;;27.15;20.08;;;;;;;9.90;100.00;101487.00;5025959;28;20049;-63
2023/04/29 03:30:46;;;;;;;30.20;20.23;;;;;;;9.91;100.00;101485.94;5031481;28;20087;-63
2023/04/29 03:33:13;;;;;;;26.00;18.77;;;;;;;9.92;100.00;101482.97;5016003;28;20053;-63
2023/04/29 03:35:41;;;;;;;28.70;19.92;;;;;;;9.92;100.00;101488.41;5030151;28;20069;-64
2023/04/29 03:38:17;;;;;;;29.75;19.30;;;;;;;9.88;100.00;101491.88;5033925;28;20045;-65
2023/04/29 03:40:46;;;;;;;24.98;19.00;;;;;;;9.87;100.00;101491.06;5032017;28;20455;-65
2023/04/29 03:43:16;;;;;;;26.90;20.20;;;;;;;9.86;100.00;101483.13;5047420;28;20128;-63
2023/04/29 03:45:44;;;;;;;30.35;20.27;;;;;;;9.88;100.00;101492.69;5015852;28;20046;-65
2023/04/29 03:48:15;;;;;;;28.25;20.13;;;;;;;9.88;100.00;101494.59;5032485;28;20052;-64
2023/04/29 03:50:43;;;;;;;26.85;19.80;;;;;;;9.85;100.00;101503.25;5032296;28;20536;-63
2023/04/29 03:53:11;;;;;;;28.23;19.63;;;;;;;9.84;100.00;101493.44;5028938;28;20083;-65
2023/04/29 03:55:39;;;;;;;27.95;20.55;;;;;;;9.84;100.00;101501.59;5008371;28;20041;-64
2023/04/29 03:58:07;;;;;;;28.30;18.25;;;;;;;9.83;100.00;101500.78;5030983;28;20053;-64
2023/04/29 04:00:35;;;;;;;27.63;19.10;;;;;;;9.86;100.00;101499.47;5015702;28;20045;-66
2023/04/29 04:03:07;;;;;;;28.92;19.88;;;;;;;9.86;100.00;101503.03;5031954;28;20050;-64
2023/04/29 04:05:37;;;;;;;30.85;19.63;;;;;;;9.87;100.00;101510.09;5015320;28;20053;-63
2023/04/29 04:08:10;;;;;;;25.67;19.05;;;;;;;9.88;100.00;101510.94;5034364;28;20555;-62
2023/04/29 04:11:02;;;;;;;26.83;19.05;;;;;;;9.86;100.00;101519.38;5071898;28;20045;-63
2023/04/29 04:13:35;;;;;;;27.77;19.52;;;;;;;9.84;100.00;101517.94;5055054;28;20079;-63
2023/04/29 04:16:04;;;;;;;26.92;18.98;;;;;;;9.84;100.00;101523.38;5006112;28;20079;-63
2023/04/29 04:18:32;;;;;;;26.77;18.65;;;;;;;9.84;100.00;101517.94;5037633;28;20054;-64
2023/04/29 04:21:05;;;;;;;24.58;17.88;;;;;;;9.81;100.00;101519.25;5037266;28;20448;-63
2023/04/29 04:23:36;;;;;;;27.05;18.90;;;;;;;9.81;100.00;101520.09;5019341;28;20076;-63
2023/04/29 04:26:04;;;;;;;29.17;18.30;;;;;;;9.84;100.00;101528.81;5023763;28;20392;-63
2023/04/29 04:28:51;;;;;;;24.50;18.15;;;;;;;9.85;100.00;101525.03;5037044;28;20054;-64
2023/04/29 04:31:55;;;;;;;24.17;17.55;;;;;;;9.87;100.00;101525.63;4994523;28;20467;-66
2023/04/29 04:34:25;;;;;;;27.15;16.77;;;;;;;9.86;100.00;101532.13;5028580;28;20195;-64
2023/04/29 04:36:55;;;;;;;21.98;16.80;;;;;;;9.86;100.00;101535.69;5035684;28;20045;-63
2023/04/29 04:39:23;;;;;;;25.23;16.92;;;;;;;9.87;100.00;101539.22;5034368;28;20045;-63
2023/04/29 04:41:52;;;;;;;23.17;16.83;;;;;;;9.87;100.00;101542.78;5034775;28;20054;-63
2023/04/29 04:44:20;;;;;;;22.73;16.70;;;;;;;9.89;100.00;101547.97;5038372;28;20064;-64
2023/04/29 04:47:01;;;;;;;22.83;16.40;;;;;;;9.87;100.00;101550.13;5035227;28;20077;-65
2023/04/29 04:49:52;;;;;;;26.30;17.10;;;;;;;9.82;100.00;101554.41;5030720;28;20068;-63
2023/04/29 04:52:21;;;;;;;24.23;16.42;;;;;;;9.78;100.00;101555.94;5034726;28;20133;-63
2023/04/29 04:54:59;;;;;;;24.00;16.45;;;;;;;9.77;100.00;101572.53;5018421;28;20482;-65
2023/04/29 04:57:29;;;;;;;23.92;16.92;;;;;;;9.74;100.00;101565.69;5034171;28;20112;-65
2023/04/29 05:00:01;;;;;;;23.65;17.08;;;;;;;9.75;100.00;101574.69;5035041;28;20589;-64
2023/04/29 05:02:28;;;;;;;24.33;16.23;;;;;;;9.78;100.00;101577.72;5034736;28;20099;-63
2023/04/29 05:04:56;;;;;;;22.73;15.68;;;;;;;9.79;100.00;101576.66;5017893;28;20095;-64
2023/04/29 05:07:27;;;;;;;24.15;15.77;;;;;;;9.78;100.00;101580.44;5042721;28;20645;-63
2023/04/29 05:10:05;;;;;;;19.92;15.02;;;;;;;9.76;100.00;101581.75;5034167;28;20045;-63
2023/04/29 05:12:37;;;;;;;21.35;15.63;;;;;;;9.76;100.00;101585.28;5067528;28;20045;-63
2023/04/29 05:15:05;;;;;;;25.83;15.38;;;;;;;9.78;100.00;101595.94;5016949;28;20493;-65
2023/04/29 05:17:35;;;;;;;24.95;16.13;;;;;;;9.79;100.00;101598.44;5051697;28;20099;-63
2023/04/29 05:20:04;;;;;;;22.10;15.23;;;;;;;9.79;100.00;101598.44;5052979;28;20059;-63
2023/04/29 05:22:33;;;;;;;20.80;15.98;;;;;;;9.78;100.00;101596.75;5036157;28;20048;-63
2023/04/29 05:25:01;;;;;;;23.60;15.45;;;;;;;9.79;100.00;101597.63;5030893;28;20053;-63
2023/04/29 05:27:31;;;;;;;25.00;16.17;;;;;;;9.79;100.00;101600.34;5046861;28;20053;-64
2023/04/29 05:30:00;;;;;;;21.25;14.70;;;;;;;9.77;100.00;101599.75;5055498;28;20075;-65
2023/04/29 05:32:29;;;;;;;24.05;15.27;;;;;;;9.76;100.00;101609.78;5052400;28;20047;-64
2023/04/29 05:34:58;;;;;;;22.85;15.20;;;;;;;9.76;100.00;101609.78;5027906;28;20049;-62
2023/04/29 05:37:29;;;;;;;22.70;15.45;;;;;;;9.76;100.00;101619.84;5034002;28;20046;-63
2023/04/29 05:40:22;;;;;;;22.55;15.52;;;;;;;9.74;100.00;101614.69;5031062;28;20140;-66
2023/04/29 05:42:51;;;;;;;25.40;15.82;;;;;;;9.72;100.00;101618.72;5049006;28;20049;-63
2023/04/29 05:45:18;;;;;;;21.23;15.88;;;;;;;9.69;100.00;101622.75;5039798;28;20045;-64
2023/04/29 05:47:49;;;;;;;23.60;14.95;;;;;;;9.71;100.00;101623.31;5053648;28;20392;-64
2023/04/29 05:50:17;;;;;;;25.98;15.68;;;;;;;9.70;100.00;101627.09;5036922;28;20041;-64
2023/04/29 05:52:45;;;;;;;22.58;14.90;;;;;;;9.71;100.00;101633.38;5032847;28;20045;-65
2023/04/29 05:55:13;;;;;;;23.60;14.48;;;;;;;9.70;100.00;101632.53;5035170;28;20058;-64
2023/04/29 05:57:40;;;;;;;24.92;16.83;;;;;;;9.71;100.00;101636.91;5032554;28;20045;-64
2023/04/29 06:00:09;;;;;;;23.58;15.57;;;;;;;9.72;100.00;101652.19;5017095;28;20220;-63
2023/04/29 06:02:44;;;;;;;22.30;15.95;;;;;;;9.70;100.00;101654.31;5033204;28;20060;-64
2023/04/29 06:05:25;;;;;;;23.85;14.73;;;;;;;9.68;100.00;101656.44;5033683;28;20050;-63
2023/04/29 06:08:20;;;;;;;20.63;14.85;;;;;;;9.69;100.00;101657.25;5033614;28;20085;-63
2023/04/29 06:10:53;;;;;;;23.40;15.27;;;;;;;9.71;100.00;101666.84;5033606;28;20041;-63
2023/04/29 06:13:20;;;;;;;21.90;14.48;;;;;;;9.70;100.00;101665.19;5032538;28;20041;-64
2023/04/29 06:15:49;;;;;;;22.35;15.20;;;;;;;9.72;100.00;101657.63;5034103;28;20053;-64
2023/04/29 06:18:17;;;;;;;22.65;15.43;;;;;;;9.74;100.00;101665.53;5066168;28;20409;-63
2023/04/29 06:20:45;;;;;;;22.85;15.23;;;;;;;9.77;100.00;101668.63;5033134;28;20064;-63
2023/04/29 06:23:14;;;;;;;25.73;15.95;;;;;;;9.74;100.00;101669.09;5033905;28;20057;-63
2023/04/29 06:25:42;;;;;;;21.30;14.32;;;;;;;9.76;100.00;101668.84;5013397;28;20068;-64
2023/04/29 06:28:09;;;;;;;23.40;14.15;;;;;;;9.79;100.00;101669.19;5021183;28;20058;-65
2023/04/29 06:30:37;;;;;;;21.45;15.02;;;;;;;9.80;100.00;101676.28;5016300;28;20044;-65
2023/04/29 06:33:06;;;;;;;22.42;15.77;;;;;;;9.81;100.00;101677.09;5031500;28;20440;-64
2023/04/29 06:35:39;;;;;;;21.42;15.57;;;;;;;9.81;100.00;101680.69;5033296;28;20124;-63
2023/04/29 06:38:17;;;;;;;24.27;14.88;;;;;;;9.84;100.00;101692.13;5041326;28;20049;-64
2023/04/29 06:40:59;;;;;;;22.63;14.50;;;;;;;9.87;100.00;101688.94;5033761;28;20045;-63
2023/04/29 06:43:27;;;;;;;20.52;14.05;;;;;;;9.88;100.00;101699.56;5042572;28;20334;-64
2023/04/29 06:46:13;;;;;;;21.90;15.35;;;;;;;9.90;100.00;101696.63;5045719;28;20271;-63
2023/04/29 06:48:56;;;;;;;23.23;14.95;;;;;;;9.94;100.00;101705.97;5034338;28;20527;-65
2023/04/29 06:51:24;;;;;;;20.20;14.75;;;;;;;9.97;100.00;101708.19;5038068;28;20057;-64
2023/04/29 06:53:51;;;;;;;20.58;14.00;;;;;;;9.97;100.00;101708.19;5051162;28;20049;-65
2023/04/29 06:56:20;;;;;;;18.45;13.05;;;;;;;9.99;100.00;101716.94;5038915;28;20102;-64
2023/04/29 06:58:48;;;;;;;21.40;14.20;;;;;;;9.98;100.00;101715.28;5022794;28;20054;-66
2023/04/29 07:01:16;;;;;;;23.27;15.13;;;;;;;9.96;100.00;101720.97;5024646;28;20052;-66
2023/04/29 07:03:44;;;;;;;23.10;14.20;;;;;;;9.99;100.00;101719.66;5059015;28;20124;-67
2023/04/29 07:06:12;;;;;;;20.77;14.15;;;;;;;10.01;100.00;101728.44;5031325;28;20053;-63
2023/04/29 07:08:39;;;;;;;21.42;13.73;;;;;;;10.00;100.00;101730.28;5033454;28;20041;-63
2023/04/29 07:11:07;;;;;;;21.38;14.65;;;;;;;10.00;100.00;101737.66;5017538;28;20041;-64
2023/04/29 07:13:35;;;;;;;24.63;14.40;;;;;;;10.00;100.00;101735.75;5032951;28;20488;-65
2023/04/29 07:16:03;;;;;;;18.38;13.70;;;;;;;10.02;100.00;101738.22;5041921;28;20164;-65
2023/04/29 07:18:31;;;;;;;19.70;14.32;;;;;;;10.05;100.00;101742.38;5032411;28;20045;-63
2023/04/29 07:21:02;;;;;;;19.33;14.20;;;;;;;10.05;100.00;101750.53;5033892;28;20136;-64
2023/04/29 07:23:30;;;;;;;22.88;14.63;;;;;;;10.02;100.00;101746.41;5031487;28;20041;-64
2023/04/29 07:25:58;;;;;;;21.00;13.82;;;;;;;9.98;100.00;101758.84;5033247;28;20506;-65
2023/04/29 07:28:25;;;;;;;20.67;14.80;;;;;;;9.97;100.00;101757.19;5032662;28;20088;-64
2023/04/29 07:30:53;;;;;;;18.92;14.50;;;;;;;10.02;100.00;101760.00;5034501;28;20044;-64
2023/04/29 07:33:21;;;;;;;21.77;14.65;;;;;;;10.02;100.00;101765.47;5030602;28;20104;-64
2023/04/29 07:35:49;;;;;;;19.92;13.73;;;;;;;10.00;100.00;101768.41;5052572;28;20052;-64
2023/04/29 07:38:17;;;;;;;24.85;15.07;;;;;;;10.03;100.00;101772.59;5039107;28;20053;-64
2023/04/29 07:40:45;;;;;;;24.45;14.45;;;;;;;10.04;100.00;101766.06;5032328;28;20037;-66
2023/04/29 07:43:13;;;;;;;19.40;14.35;;;;;;;10.05;100.00;101775.03;5016932;28;20045;-65
2023/04/29 07:45:41;;;;;;;21.75;13.82;;;;;;;10.07;100.00;101779.19;5036902;28;20049;-67
2023/04/29 07:48:08;;;;;;;26.58;15.35;;;;;;;10.09;100.00;101782.50;5016511;28;20045;-64
2023/04/29 07:50:36;;;;;;;19.75;14.18;;;;;;;10.11;100.00;101780.34;5032923;28;20046;-65
2023/04/29 07:53:04;;;;;;;20.58;14.55;;;;;;;10.11;100.00;101772.19;5037304;28;20501;-65
2023/04/29 07:55:32;;;;;;;26.63;16.58;;;;;;;10.16;100.00;101772.28;5036174;28;20072;-64
2023/04/29 07:58:01;;;;;;;21.63;14.30;;;;;;;10.20;100.00;101778.09;5030721;28;20417;-64
2023/04/29 08:00:28;;;;;;;22.35;13.82;;;;;;;10.26;100.00;101782.56;5019993;28;20048;-65
2023/04/29 08:02:56;;;;;;;22.20;14.20;;;;;;;10.32;100.00;101783.50;5037867;28;20048;-64
2023/04/29 08:05:25;;;;;;;23.48;13.43;;;;;;;10.32;100.00;101778.06;5047265;28;20052;-65
2023/04/29 08:07:53;;;;;;;24.23;13.55;;;;;;;10.32;100.00;101786.22;5039184;28;20048;-64
2023/04/29 08:10:21;;;;;;;23.15;14.25;;;;;;;10.38;100.00;101797.00;5057789;28;20044;-63
2023/04/29 08:12:49;;;;;;;21.65;13.80;;;;;;;10.41;100.00;101798.41;5059271;28;20041;-63
2023/04/29 08:15:17;;;;;;;20.75;13.13;;;;;;;10.46;100.00;101793.03;5047725;28;20045;-64
2023/04/29 08:17:45;;;;;;;22.13;12.45;;;;;;;10.52;100.00;101786.63;5039467;28;20140;-65
2023/04/29 08:20:14;;;;;;;22.73;14.05;;;;;;;10.57;100.00;101794.09;5038868;28;20539;-64
2023/04/29 08:22:41;;;;;;;24.60;13.68;;;;;;;10.58;100.00;101796.56;5039879;28;20060;-66
2023/04/29 08:25:17;;;;;;;23.98;14.20;;;;;;;10.54;100.00;101800.84;4986145;28;10000763;-64
2023/04/29 08:27:46;;;;;;;21.48;13.38;;;;;;;10.54;100.00;101795.41;4694233;28;10000192;-64
2023/04/29 08:30:14;;;;;;;21.40;13.93;;;;;;;10.56;100.00;101795.97;5035857;28;20077;-68
2023/04/29 08:32:41;;;;;;;23.63;13.65;;;;;;;10.61;100.00;101806.97;5034112;28;20050;-64
2023/04/29 08:35:10;;;;;;;22.85;13.10;;;;;;;10.62;100.00;101803.16;5033941;28;20043;-65
2023/04/29 08:37:38;;;;;;;28.00;13.48;;;;;;;10.68;100.00;101804.09;5040068;28;20110;-65
2023/04/29 08:40:07;;;;;;;21.88;12.75;;;;;;;10.73;100.00;101811.56;5055589;28;20148;-66
2023/04/29 08:42:36;;;;;;;27.15;13.77;;;;;;;10.77;100.00;101812.69;5039014;28;20056;-65
2023/04/29 08:45:05;;;;;;;24.13;14.18;;;;;;;10.79;100.00;101819.56;5054977;28;20052;-67
2023/04/29 08:47:33;;;;;;;22.20;13.40;;;;;;;10.79;100.00;101818.75;5047102;28;20493;-65
2023/04/29 08:50:03;;;;;;;21.17;14.20;;;;;;;10.82;100.00;101819.09;5033503;28;20049;-65
2023/04/29 08:52:32;;;;;;;20.33;13.57;;;;;;;10.84;100.00;101827.00;5034135;28;20080;-64
2023/04/29 08:55:04;;;;;;;22.90;13.63;;;;;;;10.83;100.00;101828.09;5034841;28;20121;-64
2023/04/29 08:57:38;;;;;;;26.70;14.25;;;;;;;10.84;100.00;101829.72;5031989;28;20059;-64
2023/04/29 09:00:09;;;;;;;22.15;12.88;;;;;;;10.87;100.00;101831.97;5036668;28;20130;-65
2023/04/29 09:02:54;;;;;;;22.08;12.10;;;;;;;10.85;100.00;101828.69;5085218;28;20057;-64
2023/04/29 09:05:23;;;;;;;20.83;13.05;;;;;;;10.90;100.00;101834.22;5063229;28;20537;-64
2023/04/29 09:07:51;;;;;;;23.75;12.40;;;;;;;10.91;100.00;101833.13;5030939;28;20046;-66
2023/04/29 09:10:19;;;;;;;19.48;12.65;;;;;;;10.95;100.00;101833.47;5030617;28;20132;-65
2023/04/29 09:12:47;;;;;;;21.30;12.55;;;;;;;10.98;100.00;101838.44;5032936;28;20057;-65
2023/04/29 09:15:14;;;;;;;19.67;11.60;;;;;;;11.02;100.00;101837.69;5031195;28;20370;-67
2023/04/29 09:17:47;;;;;;;18.25;12.10;;;;;;;11.08;100.00;101838.59;5031454;28;20856;-65
2023/04/29 09:20:20;;;;;;;19.02;12.38;;;;;;;11.12;100.00;101836.22;5012032;28;20054;-64
2023/04/29 09:22:49;;;;;;;20.85;12.38;;;;;;;11.17;100.00;101836.31;5017855;28;20046;-64
2023/04/29 09:25:20;;;;;;;19.75;12.73;;;;;;;11.21;100.00;101832.03;5032292;28;20186;-64
2023/04/29 09:27:48;;;;;;;22.10;12.35;;;;;;;11.23;100.00;101836.16;5030360;28;20550;-65
2023/04/29 09:30:16;;;;;;;20.80;11.85;;;;;;;11.26;100.00;101845.75;5033204;28;20128;-65
2023/04/29 09:32:44;;;;;;;20.52;11.50;;;;;;;11.29;100.00;101839.78;5023746;28;20049;-66
2023/04/29 09:35:24;;;;;;;23.10;12.63;;;;;;;11.40;100.00;101841.63;5030669;28;20119;-65
2023/04/29 09:37:55;;;;;;;20.27;11.80;;;;;;;11.47;100.00;101839.53;5030961;28;20145;-66
2023/04/29 09:40:33;;;;;;;19.02;11.88;;;;;;;11.52;100.00;101845.09;5030913;28;20072;-66
2023/04/29 09:43:18;;;;;;;20.50;11.60;;;;;;;11.50;100.00;101843.69;5030527;28;20061;-65
2023/04/29 09:45:48;;;;;;;17.20;11.25;;;;;;;11.50;100.00;101849.13;5030232;28;20475;-68
2023/04/29 09:48:16;;;;;;;17.55;11.38;;;;;;;11.50;100.00;101847.22;5030652;28;20509;-66
2023/04/29 09:50:45;;;;;;;25.15;12.32;;;;;;;11.50;100.00;101836.31;5040065;28;20045;-66
2023/04/29 09:53:28;;;;;;;17.63;11.30;;;;;;;11.56;100.00;101853.59;5050534;28;20053;-64
2023/04/29 09:56:02;;;;;;;23.10;11.98;;;;;;;11.56;100.00;101836.38;5044389;28;20373;-66
2023/04/29 09:58:36;;;;;;;18.58;11.70;;;;;;;11.58;100.00;101853.34;5032948;28;20052;-65
2023/04/29 10:01:05;;;;;;;17.08;11.15;;;;;;;11.53;100.00;101851.34;5035898;28;20049;-65
2023/04/29 10:03:34;;;;;;;14.93;9.80;;;;;;;11.50;100.00;101849.97;5034106;28;20041;-64
2023/04/29 10:06:05;;;;;;;18.30;10.88;;;;;;;11.49;100.00;101851.00;5033113;28;20045;-63
2023/04/29 10:08:33;;;;;;;19.45;11.02;;;;;;;11.55;100.00;101849.22;5038999;28;20119;-64
2023/04/29 10:11:04;;;;;;;17.25;9.77;;;;;;;11.67;100.00;101851.84;5054626;28;20045;-64
2023/04/29 10:13:37;;;;;;;16.67;10.05;;;;;;;11.83;99.97;101844.69;5048754;28;20058;-65
2023/04/29 10:16:22;;;;;;;15.05;10.73;;;;;;;11.90;98.78;101859.84;5036637;28;20079;-66
2023/04/29 10:18:57;;;;;;;20.17;9.68;;;;;;;11.89;97.66;101863.66;5052127;28;20067;-64
2023/04/29 10:21:30;;;;;;;16.83;9.98;;;;;;;11.92;98.06;101863.16;5032965;28;20494;-63
2023/04/29 10:23:58;;;;;;;16.67;10.23;;;;;;;11.99;98.46;101864.91;5032994;28;20045;-63
2023/04/29 10:26:28;;;;;;;16.90;10.27;;;;;;;12.03;98.82;101866.88;5036148;28;20582;-63
2023/04/29 10:28:57;;;;;;;18.42;10.95;;;;;;;12.00;98.63;101875.59;5036932;28;20523;-66
2023/04/29 10:31:26;;;;;;;18.45;10.75;;;;;;;11.97;98.46;101875.25;5032226;28;20055;-64
2023/04/29 10:33:58;;;;;;;15.82;10.45;;;;;;;11.89;97.38;101876.50;5035707;28;20056;-64
2023/04/29 10:36:30;;;;;;;17.95;10.93;;;;;;;11.86;98.04;101882.44;5036614;28;20057;-64
2023/04/29 10:39:00;;;;;;;19.55;11.93;;;;;;;11.86;98.15;101877.81;5038675;28;20044;-64
2023/04/29 10:41:44;;;;;;;16.98;11.50;;;;;;;11.84;99.55;101879.94;5052057;28;20063;-64
2023/04/29 10:44:13;;;;;;;26.58;11.98;;;;;;;11.87;98.92;101879.47;5050516;28;20121;-65
2023/04/29 10:46:40;;;;;;;16.23;10.63;;;;;;;11.94;99.20;101882.84;5033738;28;20049;-65
2023/04/29 10:49:10;;;;;;;17.70;11.18;;;;;;;11.99;98.62;101871.19;5039638;28;20041;-65
2023/04/29 10:51:41;;;;;;;14.50;10.30;;;;;;;11.99;96.63;101878.56;5040399;28;20160;-65
2023/04/29 10:54:16;;;;;;;17.60;9.75;;;;;;;12.02;98.18;101880.78;5036818;28;20107;-65
2023/04/29 10:56:49;;;;;;;15.23;9.15;;;;;;;12.07;97.83;101872.66;5037051;28;20125;-66
2023/04/29 10:59:21;;;;;;;14.95;10.10;;;;;;;12.10;96.77;101877.63;5029513;28;20075;-65
2023/04/29 11:01:52;;;;;;;16.45;9.88;;;;;;;12.11;95.90;101885.56;5057709;28;20512;-63
2023/04/29 11:04:21;;;;;;;16.88;9.07;;;;;;;12.15;95.82;101886.72;5054033;28;20072;-63
2023/04/29 11:06:53;;;;;;;13.40;8.02;;;;;;;12.17;92.60;101878.28;5048424;28;20095;-62
2023/04/29 11:09:26;;;;;;;15.30;8.70;;;;;;;12.21;93.40;101889.50;5032687;28;20076;-63
2023/04/29 11:12:00;;;;;;;13.50;8.90;;;;;;;12.26;93.85;101898.59;5033867;28;20092;-63
2023/04/29 11:15:03;;;;;;;16.23;9.27;;;;;;;12.24;92.64;101898.03;5033586;28;20129;-63
2023/04/29 11:17:36;;;;;;;17.20;8.68;;;;;;;12.28;94.71;101903.81;5036009;28;20063;-64
2023/04/29 11:20:08;;;;;;;13.85;7.82;;;;;;;12.26;91.14;101893.13;5046564;28;20116;-62
2023/04/29 11:22:36;;;;;;;15.27;7.95;;;;;;;12.27;90.71;101902.16;5031730;28;20049;-63